Time;durP1;ratioP1;P1;durP2;ratioP2;P2;SDS_P1;SDS_P2;PMS_P1;PMS_P2;Temp;Humidity;BMP_temperature;BMP_pressure;BME280_temperature;BME280_humidity;BME280_pressure;Samples;Min_cycle;Max_cycle;Signal;HPM_P1;HPM_P2
2022/07/01 00:00:37;;;;;;;5.40;2.97;;;20.30;75.80;;;19.56;90.50;95781.66;4933194;28;20471;-69
2022/07/01 00:03:04;;;;;;;4.53;2.90;;;20.20;76.00;;;19.58;90.65;95778.75;4948607;28;20236;-69
2022/07/01 00:05:30;;;;;;;6.32;3.33;;;20.30;75.90;;;19.60;91.81;95781.16;4946814;28;20126;-70
2022/07/01 00:07:55;;;;;;;4.63;3.22;;;20.40;76.00;;;19.62;91.63;95795.06;4935256;28;20043;-69
2022/07/01 00:10:21;;;;;;;7.68;3.70;;;20.30;76.40;;;19.58;91.76;95803.56;4950137;28;20062;-70
2022/07/01 00:12:47;;;;;;;7.78;3.40;;;20.30;76.40;;;19.58;92.65;95822.25;4964326;28;20126;-69
2022/07/01 00:15:13;;;;;;;5.30;3.40;;;20.20;76.80;;;19.58;93.59;95838.25;4960294;28;20034;-70
2022/07/01 00:17:39;;;;;;;6.03;3.38;;;20.20;77.00;;;19.58;94.04;95832.09;4945595;28;20062;-70
2022/07/01 00:20:05;;;;;;;8.27;3.80;;;20.30;77.10;;;19.60;94.27;95829.19;4961210;28;20400;-70
2022/07/01 00:22:31;;;;;;;5.22;3.45;;;20.40;77.00;;;19.62;94.17;95837.75;4950249;28;20172;-69
2022/07/01 00:24:57;;;;;;;7.47;3.67;;;20.50;76.70;;;19.65;93.34;95831.91;4944349;28;20044;-68
2022/07/01 00:27:22;;;;;;;6.80;3.40;;;20.40;76.80;;;19.65;93.22;95831.91;4963807;28;20573;-69
2022/07/01 00:29:48;;;;;;;6.05;2.90;;;20.40;76.70;;;19.63;93.97;95834.00;4927481;28;20031;-69
2022/07/01 00:32:14;;;;;;;6.32;3.25;;;20.30;76.40;;;19.62;92.94;95833.22;4929124;28;20126;-70
2022/07/01 00:34:40;;;;;;;4.50;2.88;;;20.30;76.10;;;19.61;92.68;95828.94;4946651;28;20458;-69
2022/07/01 00:37:05;;;;;;;6.07;2.75;;;20.30;76.00;;;19.65;92.05;95829.22;4963499;28;20066;-69
2022/07/01 00:39:33;;;;;;;5.10;2.80;;;20.40;75.70;;;19.64;92.72;95838.28;4943144;28;20125;-69
2022/07/01 00:42:00;;;;;;;5.57;2.90;;;20.30;75.60;;;19.63;92.36;95844.69;4963778;28;20513;-69
2022/07/01 00:44:26;;;;;;;4.53;2.90;;;20.30;75.10;;;19.60;92.17;95855.88;4932578;28;20057;-69
2022/07/01 00:46:52;;;;;;;3.53;2.08;;;20.30;75.30;;;19.61;92.24;95860.16;4965577;28;20106;-69
2022/07/01 00:49:18;;;;;;;3.35;2.47;;;20.40;75.10;;;19.63;91.27;95861.50;4943964;28;20059;-70
2022/07/01 00:51:44;;;;;;;3.42;2.40;;;20.40;74.80;;;19.65;91.04;95859.38;4945097;28;20027;-68
2022/07/01 00:54:10;;;;;;;3.47;2.33;;;20.50;74.60;;;19.64;90.35;95857.78;4949118;28;20451;-68
2022/07/01 00:56:35;;;;;;;4.68;2.35;;;20.40;74.50;;;19.65;91.04;95863.91;4947529;28;20035;-68
2022/07/01 00:59:01;;;;;;;3.53;2.20;;;20.40;74.50;;;19.66;90.21;95857.53;4947809;28;20455;-67
2022/07/01 01:01:27;;;;;;;6.20;2.10;;;20.40;74.10;;;19.65;90.59;95869.25;4947401;28;20037;-68
2022/07/01 01:03:53;;;;;;;4.72;2.20;;;20.40;74.10;;;19.66;90.10;95860.19;4948728;28;20579;-68
2022/07/01 01:06:18;;;;;;;3.83;2.30;;;20.50;73.80;;;19.64;90.00;95857.78;4946733;28;20054;-69
2022/07/01 01:08:45;;;;;;;4.57;2.00;;;20.30;73.40;;;19.65;88.95;95853.25;4950349;28;20058;-69
2022/07/01 01:11:11;;;;;;;7.60;2.60;;;20.40;73.50;;;19.64;88.10;95846.28;4931205;28;20039;-68
2022/07/01 01:13:36;;;;;;;6.45;2.03;;;20.30;73.20;;;19.62;89.07;95854.56;4929242;28;20541;-68
2022/07/01 01:16:05;;;;;;;6.25;1.90;;;20.30;73.20;;;19.60;88.76;95862.00;4978941;28;20042;-68
2022/07/01 01:18:30;;;;;;;3.40;2.03;;;20.40;72.90;;;19.62;88.28;95864.41;4964244;28;20403;-69
2022/07/01 01:20:56;;;;;;;3.20;1.90;;;20.50;72.90;;;19.61;88.12;95863.63;4931096;28;20077;-68
2022/07/01 01:23:22;;;;;;;2.50;1.85;;;20.40;72.70;;;19.62;87.93;95864.41;4962277;28;20035;-68
2022/07/01 01:25:48;;;;;;;2.15;1.88;;;20.40;72.60;;;19.58;88.61;95870.28;4930499;28;20055;-67
2022/07/01 01:28:14;;;;;;;3.30;2.03;;;20.30;72.80;;;19.61;87.97;95873.47;4962579;28;20541;-69
2022/07/01 01:30:39;;;;;;;3.38;1.80;;;20.50;72.70;;;19.62;87.89;95875.91;4949162;28;20035;-69
2022/07/01 01:33:07;;;;;;;2.25;1.80;;;20.50;72.20;;;19.67;86.97;95875.16;4962247;28;20060;-69
2022/07/01 01:35:34;;;;;;;3.30;1.98;;;20.60;71.90;;;19.66;86.40;95881.53;4944469;28;20835;-68
2022/07/01 01:37:59;;;;;;;2.72;1.90;;;20.50;71.70;;;19.65;86.05;95885.25;4947659;28;20138;-69
2022/07/01 01:40:25;;;;;;;2.00;1.77;;;20.50;71.60;;;19.65;86.30;95890.59;4947935;28;20058;-68
2022/07/01 01:42:52;;;;;;;3.38;1.60;;;20.50;71.70;;;19.64;86.24;95883.66;4943207;28;20038;-69
2022/07/01 01:45:17;;;;;;;3.83;1.92;;;20.50;71.70;;;19.63;86.46;95887.38;4946587;28;20584;-69
2022/07/01 01:47:43;;;;;;;2.17;1.52;;;20.40;71.20;;;19.60;85.36;95882.56;4964765;28;20162;-69
2022/07/01 01:50:10;;;;;;;2.40;1.40;;;20.40;71.00;;;19.54;84.69;95882.50;4949702;28;20136;-69
2022/07/01 01:52:38;;;;;;;4.88;1.30;;;20.30;70.80;;;19.49;85.02;95877.09;4931314;28;20074;-69
2022/07/01 01:55:04;;;;;;;1.70;0.90;;;20.20;70.50;;;19.44;84.50;95874.34;4944444;28;20038;-70
2022/07/01 01:57:30;;;;;;;2.05;1.10;;;20.10;70.30;;;19.39;84.22;95866.28;4947191;28;20042;-68
2022/07/01 01:59:56;;;;;;;4.70;1.00;;;20.10;70.20;;;19.32;83.90;95865.69;4942509;28;20066;-68
2022/07/01 02:02:22;;;;;;;2.42;0.93;;;20.00;70.70;;;19.29;83.75;95866.19;4962841;28;20161;-69
2022/07/01 02:04:47;;;;;;;2.25;0.80;;;20.00;70.70;;;19.25;83.43;95873.06;4947646;28;20126;-69
2022/07/01 02:07:13;;;;;;;3.50;0.95;;;20.00;70.60;;;19.22;84.12;95874.34;4943756;28;20106;-69
2022/07/01 02:09:39;;;;;;;2.70;1.00;;;20.00;70.80;;;19.21;84.45;95871.94;4947761;28;20062;-69
2022/07/01 02:12:05;;;;;;;1.60;0.80;;;19.90;70.80;;;19.16;84.12;95877.22;4944314;28;20039;-69
2022/07/01 02:14:31;;;;;;;3.95;0.73;;;19.80;71.00;;;19.10;83.44;95878.22;4948078;28;20045;-68
2022/07/01 02:16:57;;;;;;;1.40;0.85;;;19.80;71.10;;;19.07;84.18;95886.72;4928304;28;1043530;-68
2022/07/01 02:19:22;;;;;;;1.75;0.80;;;19.80;71.30;;;19.07;84.24;95884.03;4944860;28;20133;-68
2022/07/01 02:21:50;;;;;;;1.23;0.80;;;20.00;71.20;;;19.05;83.78;95897.63;4946292;28;20372;-68
2022/07/01 02:24:17;;;;;;;3.03;0.82;;;19.90;71.00;;;19.01;84.28;95901.00;4945269;28;20039;-68
2022/07/01 02:26:43;;;;;;;1.73;0.50;;;19.70;71.50;;;19.03;85.26;95904.25;4947036;28;20394;-68
2022/07/01 02:29:08;;;;;;;1.75;0.80;;;19.80;71.40;;;19.03;85.09;95904.25;4941461;28;20030;-69
2022/07/01 02:31:34;;;;;;;1.70;0.90;;;19.80;71.50;;;19.03;85.70;95909.59;4947002;28;20614;-68
2022/07/01 02:34:00;;;;;;;3.30;0.80;;;19.90;71.40;;;19.04;84.79;95912.00;4944361;28;20031;-68
2022/07/01 02:36:26;;;;;;;2.50;0.80;;;19.90;71.40;;;18.98;84.69;95919.09;4962281;28;20384;-68
2022/07/01 02:38:51;;;;;;;0.95;0.70;;;19.80;71.50;;;18.96;86.21;95923.88;4951733;28;20402;-68
2022/07/01 02:41:17;;;;;;;1.77;0.68;;;19.80;71.70;;;18.93;85.00;95921.72;4968236;28;20486;-68
2022/07/01 02:43:43;;;;;;;1.23;0.75;;;19.70;72.10;;;18.92;84.99;95932.63;4941022;28;20069;-68
2022/07/01 02:46:09;;;;;;;2.10;1.70;;;19.70;72.20;;;18.88;86.97;95940.31;4950016;28;20043;-67
2022/07/01 02:48:34;;;;;;;3.53;2.38;;;19.60;72.50;;;18.85;86.14;95943.47;4967883;28;20062;-66
2022/07/01 02:51:00;;;;;;;2.50;0.90;;;19.60;73.00;;;18.83;86.55;95948.22;4950116;28;20043;-66
2022/07/01 02:53:26;;;;;;;2.92;1.33;;;19.70;73.10;;;18.78;87.83;95953.47;4950770;28;20066;-66
2022/07/01 02:55:51;;;;;;;5.55;4.18;;;19.50;73.60;;;18.77;87.75;95959.84;4949337;28;20035;-73
2022/07/01 02:58:17;;;;;;;7.13;4.88;;;19.60;73.70;;;18.79;87.72;95951.63;4949376;28;20570;-68
2022/07/01 03:00:43;;;;;;;3.58;1.85;;;19.60;73.70;;;18.80;88.02;95956.72;4947632;28;20588;-69
2022/07/01 03:03:09;;;;;;;2.00;1.45;;;19.60;73.60;;;18.76;88.61;95963.56;4952558;28;20100;-69
2022/07/01 03:05:34;;;;;;;2.17;1.10;;;19.60;73.90;;;18.76;89.52;95968.88;4969743;28;20105;-69
2022/07/01 03:08:00;;;;;;;3.90;2.80;;;19.60;74.10;;;18.75;89.04;95958.47;4970611;28;20057;-68
2022/07/01 03:10:26;;;;;;;1.90;1.33;;;19.60;74.50;;;18.71;88.61;95955.50;4969375;28;20043;-69
2022/07/01 03:12:52;;;;;;;4.20;2.00;;;19.50;74.20;;;18.68;88.93;95955.97;4971127;28;20590;-69
2022/07/01 03:15:18;;;;;;;1.95;1.40;;;19.50;74.60;;;18.61;90.14;95950.81;4967675;28;20061;-69
2022/07/01 03:17:46;;;;;;;1.98;1.20;;;19.40;75.10;;;18.64;89.65;95960.19;4952033;28;20035;-69
2022/07/01 03:20:14;;;;;;;1.27;0.60;;;19.50;75.00;;;18.60;90.21;95948.38;4954113;28;20094;-69
2022/07/01 03:22:40;;;;;;;1.10;0.80;;;19.40;75.10;;;18.55;90.43;95958.94;4938406;28;20388;-69
2022/07/01 03:25:07;;;;;;;11.82;8.88;;;19.30;75.10;;;18.53;91.48;95953.84;4950634;28;20039;-69
2022/07/01 03:27:33;;;;;;;5.40;4.70;;;19.30;75.60;;;18.54;91.14;95954.66;4936854;28;20073;-68
2022/07/01 03:29:59;;;;;;;4.78;4.00;;;19.40;75.60;;;18.55;91.04;95957.06;4970546;28;20042;-68
2022/07/01 03:32:25;;;;;;;2.30;1.48;;;19.40;75.10;;;18.56;91.14;95957.91;4953709;28;20031;-69
2022/07/01 03:34:51;;;;;;;0.90;0.70;;;19.50;75.40;;;18.56;91.72;95958.72;4954560;28;20031;-69
2022/07/01 03:37:17;;;;;;;2.03;0.77;;;19.50;75.20;;;18.56;92.44;95958.72;4951940;28;20042;-68
2022/07/01 03:39:43;;;;;;;3.58;0.90;;;19.50;75.20;;;18.57;91.64;95959.53;4954020;28;20039;-68
2022/07/01 03:42:09;;;;;;;1.08;0.57;;;19.50;75.30;;;18.60;92.07;95964.38;4953912;28;20039;-69
2022/07/01 03:44:35;;;;;;;0.90;0.80;;;19.50;75.40;;;18.62;92.02;95957.78;4952042;28;20050;-65
2022/07/01 03:47:03;;;;;;;1.27;0.90;;;19.60;75.30;;;18.65;92.52;95961.81;4936359;28;20031;-64
2022/07/01 03:49:28;;;;;;;1.30;0.90;;;19.60;75.00;;;18.64;92.05;95960.19;4954181;28;20041;-67
2022/07/01 03:51:54;;;;;;;1.85;0.80;;;19.60;75.40;;;18.66;92.78;95968.75;4972321;28;20031;-68
2022/07/01 03:54:29;;;;;;;1.25;0.90;;;19.60;75.30;;;18.67;93.09;95965.84;4955664;28;20038;-68
2022/07/01 03:56:58;;;;;;;1.73;1.05;;;19.60;75.30;;;18.69;93.01;95964.78;4957703;28;20031;-67
2022/07/01 03:59:28;;;;;;;1.55;1.08;;;19.70;75.40;;;18.69;92.96;95973.59;4970862;28;20031;-67
2022/07/01 04:01:57;;;;;;;1.27;0.65;;;19.60;75.30;;;18.66;93.18;95960.75;4968864;28;20451;-67
2022/07/01 04:04:23;;;;;;;2.72;0.90;;;19.60;75.40;;;18.66;93.59;95963.41;4921018;29;20035;-68
2022/07/01 04:06:49;;;;;;;0.85;0.68;;;19.60;75.30;;;18.66;92.94;95961.56;4937128;28;20023;-69
2022/07/01 04:09:16;;;;;;;1.73;0.90;;;19.60;75.10;;;18.68;92.53;95969.31;4911848;28;20522;-68
2022/07/01 04:11:42;;;;;;;2.55;0.93;;;19.70;75.30;;;18.68;93.40;95971.97;4972004;28;20035;-68
2022/07/01 04:14:09;;;;;;;1.42;0.90;;;19.70;75.20;;;18.69;93.31;95970.09;4972001;28;20034;-67
2022/07/01 04:16:35;;;;;;;2.85;1.00;;;19.70;75.20;;;18.66;92.21;95979.41;4971729;28;20057;-68
2022/07/01 04:19:00;;;;;;;1.58;1.00;;;19.60;75.30;;;18.62;92.76;95979.09;4963757;28;20507;-68
2022/07/01 04:24:13;;;;;;;1.80;0.90;;;19.60;75.60;;;18.54;93.14;95989.28;4939309;28;20031;-68
2022/07/01 04:26:39;;;;;;;1.42;0.90;;;19.50;75.90;;;18.49;94.04;95978.56;4936939;28;20066;-67
2022/07/01 04:29:05;;;;;;;3.80;0.90;;;19.30;76.30;;;18.41;93.83;95976.28;4943979;28;20050;-67
2022/07/01 04:31:31;;;;;;;2.95;0.85;;;19.20;76.60;;;18.41;93.75;95978.97;4931316;28;20493;-68
2022/07/01 04:33:57;;;;;;;2.42;1.02;;;19.30;76.50;;;18.39;94.16;95973.88;4971664;28;20031;-67
2022/07/01 04:36:23;;;;;;;1.58;1.20;;;19.20;76.60;;;18.39;94.38;95973.88;4971447;28;20061;-68
2022/07/01 04:38:49;;;;;;;2.78;1.33;;;19.30;76.50;;;18.42;93.93;95954.75;4969301;28;20051;-67
2022/07/01 04:43:59;;;;;;;2.72;1.10;;;19.50;76.10;;;18.50;95.31;95932.22;4971591;28;20418;-67
2022/07/01 04:46:25;;;;;;;2.40;0.80;;;19.60;75.90;;;18.54;94.63;95938.66;4971050;28;20035;-68
2022/07/01 04:48:51;;;;;;;1.10;1.00;;;19.70;75.80;;;18.56;94.12;95931.28;4969800;28;20037;-68
2022/07/01 04:51:16;;;;;;;2.33;1.20;;;19.70;75.30;;;18.60;94.00;95932.41;4970765;28;20042;-68
2022/07/01 04:53:42;;;;;;;2.08;1.20;;;19.60;75.50;;;18.61;93.74;95934.00;4971180;28;20062;-67
2022/07/01 04:56:08;;;;;;;1.35;1.02;;;19.60;75.00;;;18.59;93.63;95944.91;4951747;28;20031;-67
2022/07/01 04:58:33;;;;;;;1.45;0.98;;;19.60;75.10;;;18.59;93.05;95952.91;4956457;28;20470;-68
2022/07/01 05:00:59;;;;;;;1.88;1.10;;;19.60;75.20;;;18.61;94.13;95955.31;4966678;28;20035;-70
2022/07/01 05:03:25;;;;;;;2.83;0.95;;;19.60;75.20;;;18.62;93.34;95951.59;4951586;28;20039;-68
2022/07/01 05:05:51;;;;;;;1.23;0.90;;;19.60;75.00;;;18.61;94.18;95948.13;4919972;29;20114;-68
2022/07/01 05:08:16;;;;;;;1.52;0.90;;;19.60;75.30;;;18.63;92.90;95942.59;4929877;28;20042;-68
2022/07/01 05:10:42;;;;;;;1.20;0.77;;;19.70;74.70;;;18.68;94.31;95937.34;4970955;28;20046;-69
2022/07/01 05:13:08;;;;;;;1.60;0.88;;;19.80;75.00;;;18.71;94.36;95944.84;4970367;28;20027;-68
2022/07/01 05:15:34;;;;;;;1.63;1.00;;;19.90;74.90;;;18.73;93.38;95937.41;4970808;28;20035;-68
2022/07/01 05:23:28;;;;;;;2.58;1.30;;;19.90;74.50;;;18.79;92.93;95935.66;4970580;28;20041;-67
2022/07/01 05:25:54;;;;;;;1.40;1.00;;;20.00;74.80;;;18.81;94.11;95945.00;4954593;28;20062;-67
2022/07/01 05:28:20;;;;;;;2.30;1.30;;;20.00;75.00;;;18.84;93.87;95949.03;4945388;28;20102;-67
2022/07/01 05:30:46;;;;;;;2.10;1.25;;;20.00;75.10;;;18.87;93.99;95961.88;4954403;28;20166;-68
2022/07/01 05:33:11;;;;;;;1.30;0.98;;;20.00;75.10;;;18.91;94.38;95977.13;4970099;28;20039;-67
2022/07/01 05:35:37;;;;;;;2.08;1.10;;;20.10;74.70;;;18.95;94.18;95978.25;4953607;28;20108;-67
2022/07/01 05:38:03;;;;;;;12.00;9.07;;;20.10;75.00;;;19.00;93.76;95987.34;4953805;28;20039;-67
2022/07/01 05:40:28;;;;;;;4.47;2.55;;;20.30;74.90;;;19.06;94.21;95995.22;4970130;28;20053;-67
2022/07/01 05:42:54;;;;;;;4.03;1.42;;;20.30;74.00;;;19.09;94.10;96000.06;4970406;28;20039;-67
2022/07/01 05:45:20;;;;;;;3.17;1.23;;;20.40;74.00;;;19.14;93.23;95999.31;4969673;28;20042;-67
2022/07/01 05:47:46;;;;;;;2.72;1.08;;;20.40;73.90;;;19.18;93.97;96000.44;4961227;28;20308;-67
2022/07/01 05:50:11;;;;;;;1.73;1.00;;;20.50;73.90;;;19.23;92.41;95995.16;4970219;28;20038;-67
2022/07/01 05:52:37;;;;;;;5.22;2.05;;;20.50;73.00;;;19.27;93.48;95991.78;4953954;28;20050;-67
2022/07/01 05:55:03;;;;;;;4.15;1.70;;;20.60;73.40;;;19.31;93.68;95997.41;4969417;28;20418;-67
2022/07/01 05:57:29;;;;;;;3.30;1.52;;;20.60;73.50;;;19.37;93.41;95990.28;4960896;28;20534;-67
2022/07/01 05:59:55;;;;;;;2.55;1.33;;;20.60;73.30;;;19.40;92.61;96011.94;4969839;28;20031;-67
2022/07/01 06:02:21;;;;;;;1.80;1.02;;;20.60;73.10;;;19.42;92.68;96020.50;4966909;28;20165;-67
2022/07/01 06:04:46;;;;;;;3.03;1.30;;;20.60;73.60;;;19.41;92.54;96024.22;4947626;28;20046;-67
2022/07/01 06:07:12;;;;;;;1.50;0.98;;;20.60;73.60;;;19.42;92.65;96036.50;4953471;28;20117;-67
2022/07/01 06:09:38;;;;;;;2.25;1.02;;;20.60;73.30;;;19.44;92.03;96039.72;4969671;28;20097;-67
2022/07/01 06:12:04;;;;;;;2.15;1.00;;;20.60;73.60;;;19.44;92.15;96037.06;4952968;28;20042;-67
2022/07/01 06:14:30;;;;;;;1.35;1.10;;;20.60;73.50;;;19.42;92.39;96028.50;4953298;28;20510;-67
2022/07/01 06:16:56;;;;;;;2.00;1.10;;;20.50;73.60;;;19.39;92.08;96042.34;4969906;28;20078;-67
2022/07/01 06:19:22;;;;;;;1.40;0.90;;;20.50;74.00;;;19.35;92.41;96041.22;4953261;28;20487;-67
2022/07/01 06:21:47;;;;;;;2.42;0.95;;;20.40;74.30;;;19.33;92.28;96037.19;4969975;28;20539;-67
2022/07/01 06:24:13;;;;;;;3.13;1.10;;;20.40;74.20;;;19.35;93.01;96035.06;4950493;28;20511;-68
2022/07/01 06:26:39;;;;;;;1.77;1.13;;;20.60;74.00;;;19.34;92.80;96036.13;4969844;28;20046;-67
2022/07/01 06:29:05;;;;;;;2.10;1.05;;;20.50;73.80;;;19.37;91.75;96039.09;4969045;28;20039;-67
2022/07/01 06:31:33;;;;;;;1.27;1.00;;;20.60;73.80;;;19.40;92.85;96043.94;4969728;28;20035;-67
2022/07/01 06:33:59;;;;;;;3.00;1.20;;;20.60;73.30;;;19.40;92.55;96054.63;4949139;28;20062;-67
2022/07/01 06:36:25;;;;;;;2.58;1.10;;;20.50;73.80;;;19.39;91.83;96055.66;4936240;28;20137;-67
2022/07/01 06:38:51;;;;;;;1.33;1.05;;;20.50;73.70;;;19.44;93.03;96061.06;4969231;28;20108;-67
2022/07/01 06:41:28;;;;;;;2.08;1.10;;;20.60;73.80;;;19.49;93.42;96069.16;4953187;28;20173;-67
2022/07/01 06:43:55;;;;;;;2.38;1.00;;;20.70;73.70;;;19.51;92.42;96069.72;4964320;28;20071;-67
2022/07/01 06:46:21;;;;;;;3.28;1.10;;;20.70;72.50;;;19.54;92.31;96065.78;4929419;28;20053;-68
2022/07/01 06:48:47;;;;;;;1.17;1.02;;;20.70;72.80;;;19.62;91.43;96059.22;4953511;28;20027;-67
2022/07/01 06:51:13;;;;;;;2.75;1.27;;;20.90;72.70;;;19.67;91.64;96061.94;4969109;28;20119;-67
2022/07/01 06:53:39;;;;;;;1.25;1.10;;;20.90;72.20;;;19.70;91.10;96066.81;4969476;28;20034;-67
2022/07/01 06:56:04;;;;;;;2.08;0.98;;;21.00;71.90;;;19.71;90.43;96073.75;4949244;28;20036;-67
2022/07/01 06:58:30;;;;;;;3.78;1.50;;;20.90;72.30;;;19.67;90.67;96072.63;4952473;28;20030;-68
2022/07/01 07:00:56;;;;;;;2.60;1.20;;;20.70;72.20;;;19.65;90.02;96072.06;4970852;28;20064;-67
2022/07/01 07:03:22;;;;;;;2.22;1.30;;;20.70;72.00;;;19.60;89.62;96074.66;4969160;28;20093;-68
2022/07/01 07:05:47;;;;;;;1.70;1.10;;;20.60;72.10;;;19.57;89.82;96081.31;4960730;28;20078;-67
2022/07/01 07:08:13;;;;;;;2.70;1.20;;;20.70;72.00;;;19.63;89.73;96082.16;4969165;28;20046;-67
2022/07/01 07:10:39;;;;;;;3.17;1.00;;;20.90;71.40;;;19.65;89.18;96077.38;4969620;28;20759;-67
2022/07/01 07:13:05;;;;;;;1.77;1.13;;;20.90;71.50;;;19.70;89.29;96069.47;4969137;28;20175;-68
2022/07/01 07:15:30;;;;;;;1.75;1.10;;;21.00;71.20;;;19.73;89.33;96068.97;4960566;28;20036;-68
2022/07/01 07:17:57;;;;;;;2.10;1.20;;;20.90;71.20;;;19.70;88.91;96085.50;4965782;28;20094;-68
2022/07/01 07:20:26;;;;;;;2.38;1.02;;;20.80;70.90;;;19.57;87.11;96086.63;4918561;28;20392;-69
2022/07/01 07:22:52;;;;;;;1.92;1.10;;;20.50;70.70;;;19.48;87.19;96093.44;4918812;29;20055;-69
2022/07/01 07:25:18;;;;;;;1.48;0.90;;;20.50;70.70;;;19.38;87.32;96102.06;4947442;28;20027;-69
2022/07/01 07:27:46;;;;;;;1.48;0.90;;;20.40;69.90;;;19.28;85.88;96107.25;4972524;28;20037;-69
2022/07/01 07:30:12;;;;;;;1.60;0.90;;;20.30;70.30;;;19.16;86.83;96110.00;4957134;28;20030;-67
2022/07/01 07:32:39;;;;;;;2.03;1.00;;;20.10;70.70;;;19.05;86.44;96110.09;4972615;28;20038;-66
2022/07/01 07:35:06;;;;;;;2.03;0.95;;;19.90;71.00;;;18.97;86.86;96113.94;4964185;28;20042;-66
2022/07/01 07:37:32;;;;;;;2.38;0.80;;;19.90;71.10;;;18.86;86.05;96118.31;4971862;28;20042;-66
2022/07/01 07:40:03;;;;;;;1.83;1.05;;;19.80;71.10;;;18.74;86.23;96116.75;4956376;28;20035;-66
2022/07/01 07:42:29;;;;;;;;;;;19.60;71.60;;;18.60;86.52;96126.88;4964246;28;20049;-66
2022/07/01 07:44:55;;;;;;;1.98;1.08;;;19.50;71.80;;;18.48;86.46;96120.78;4972209;28;19929;-66
2022/07/01 07:47:21;;;;;;;1.92;0.90;;;19.40;72.30;;;18.44;87.66;96115.13;4954792;28;20030;-66
2022/07/01 07:49:47;;;;;;;0.73;0.73;;;19.50;72.30;;;18.45;86.94;96115.91;4956171;28;20593;-68
2022/07/01 07:52:13;;;;;;;2.15;1.15;;;19.60;71.60;;;18.41;86.82;96114.78;4972505;28;20034;-68
2022/07/01 07:54:39;;;;;;;1.60;0.82;;;19.50;71.60;;;18.42;87.80;96111.06;4956365;28;20418;-68
2022/07/01 07:57:05;;;;;;;1.58;1.10;;;19.60;71.90;;;18.44;87.93;96119.63;4963071;28;20035;-69
2022/07/01 07:59:31;;;;;;;1.35;0.93;;;19.60;71.10;;;18.42;86.81;96121.72;4962932;28;20105;-69
2022/07/01 08:01:56;;;;;;;1.77;0.90;;;19.50;71.20;;;18.39;87.46;96123.00;4953188;28;20498;-69
2022/07/01 08:04:22;;;;;;;1.50;1.25;;;19.50;71.70;;;18.30;87.43;96135.88;4952922;28;20463;-68
2022/07/01 08:06:48;;;;;;;1.83;1.13;;;19.20;71.50;;;18.24;87.00;96144.81;4945018;28;20557;-67
2022/07/01 08:09:14;;;;;;;1.67;1.00;;;19.20;71.30;;;18.09;86.24;96155.16;4949784;28;20043;-67
2022/07/01 08:11:39;;;;;;;1.02;0.80;;;18.90;71.70;;;18.01;85.80;96158.19;4955951;28;20125;-67
2022/07/01 08:14:05;;;;;;;1.20;0.82;;;18.80;71.60;;;17.95;86.43;96164.44;4972040;28;20082;-66
2022/07/01 08:16:31;;;;;;;1.02;0.70;;;18.90;71.10;;;17.82;84.48;96164.69;4971213;28;20038;-66
2022/07/01 08:18:57;;;;;;;2.72;0.68;;;18.60;70.00;;;17.68;84.25;96185.41;4952305;28;20043;-66
2022/07/01 08:21:22;;;;;;;1.30;0.50;;;18.40;70.60;;;17.63;84.23;96187.88;4950580;28;20057;-66
2022/07/01 08:23:48;;;;;;;1.63;0.60;;;18.50;70.20;;;17.55;83.88;96196.22;4936649;29;20055;-67
2022/07/01 08:26:15;;;;;;;0.75;0.50;;;18.40;70.00;;;17.51;83.94;96211.84;4936477;29;20107;-66
2022/07/01 08:28:41;;;;;;;2.45;0.60;;;18.30;70.40;;;17.39;82.45;96221.63;4943210;28;20118;-66
2022/07/01 08:31:07;;;;;;;2.47;0.50;;;18.20;68.50;;;17.28;81.94;96225.09;4949493;28;20126;-67
2022/07/01 08:33:32;;;;;;;0.93;0.52;;;18.10;67.80;;;17.16;80.73;96241.00;4920467;28;20034;-66
2022/07/01 08:35:58;;;;;;;1.17;0.40;;;17.80;68.20;;;17.15;80.42;96239.38;4919525;29;20059;-66
2022/07/01 08:38:24;;;;;;;1.08;0.70;;;18.10;68.10;;;17.14;80.62;96233.25;4946250;28;20050;-69
2022/07/01 08:40:50;;;;;;;1.20;0.40;;;18.10;67.90;;;17.14;81.00;96243.88;4972623;28;20042;-68
2022/07/01 08:43:15;;;;;;;1.70;0.40;;;18.10;68.20;;;17.12;80.88;96245.97;4970740;28;20062;-69
2022/07/01 08:45:42;;;;;;;0.93;0.40;;;18.20;68.80;;;17.14;81.61;96259.81;4955225;28;20026;-69
2022/07/01 08:48:07;;;;;;;1.60;0.50;;;18.10;68.50;;;17.08;81.09;96270.56;4954350;28;20042;-69
2022/07/01 08:50:39;;;;;;;1.85;0.75;;;17.90;69.40;;;17.02;81.24;96266.97;4971213;28;20454;-69
2022/07/01 08:53:05;;;;;;;1.15;0.80;;;17.90;68.90;;;16.93;80.61;96273.59;4954746;28;20035;-69
2022/07/01 08:55:31;;;;;;;1.02;0.73;;;17.60;68.70;;;16.84;81.43;96270.47;4971126;28;20030;-68
2022/07/01 08:57:57;;;;;;;0.90;0.80;;;17.60;69.00;;;16.80;81.04;96273.78;4970092;28;20121;-68
2022/07/01 09:00:32;;;;;;;0.90;0.63;;;17.60;69.00;;;16.70;80.55;96271.66;4954782;28;20046;-69
2022/07/01 09:03:01;;;;;;;2.67;0.82;;;17.60;69.10;;;16.71;81.10;96275.94;4955626;28;20506;-69
2022/07/01 09:05:28;;;;;;;1.77;0.80;;;17.60;69.20;;;16.67;81.23;96260.66;4951257;28;20155;-69
2022/07/01 09:08:02;;;;;;;1.65;0.70;;;17.60;69.00;;;16.70;80.99;96260.22;4938306;28;20039;-69
2022/07/01 09:10:31;;;;;;;2.30;0.70;;;17.80;68.30;;;16.77;80.38;96263.63;4939447;28;20035;-68
2022/07/01 09:12:58;;;;;;;0.80;0.70;;;18.00;67.50;;;16.73;80.39;96267.72;4962503;28;20122;-69
2022/07/01 09:15:30;;;;;;;2.25;0.57;;;17.70;67.70;;;16.74;80.28;96264.03;4969965;28;20046;-69
2022/07/01 09:18:03;;;;;;;0.85;0.60;;;17.70;67.80;;;16.76;80.93;96267.31;4970517;28;20034;-66
2022/07/01 09:20:35;;;;;;;1.33;0.70;;;17.80;68.60;;;16.72;80.20;96266.91;4954838;28;20041;-66
2022/07/01 09:23:06;;;;;;;1.13;0.65;;;17.70;68.60;;;16.71;80.18;96269.81;4953723;28;20035;-67
2022/07/01 09:25:36;;;;;;;1.50;0.80;;;17.60;68.10;;;16.73;79.96;96278.34;4970266;28;20075;-66
2022/07/01 09:28:20;;;;;;;1.30;0.60;;;17.70;68.30;;;16.78;80.52;96275.88;4970537;28;20027;-67
2022/07/01 09:30:51;;;;;;;1.98;1.17;;;17.90;68.30;;;16.82;80.46;96269.88;4970786;28;20066;-67
2022/07/01 09:33:28;;;;;;;1.10;0.68;;;18.10;67.70;;;16.89;81.06;96263.66;4960584;28;20036;-67
2022/07/01 09:35:55;;;;;;;1.08;0.70;;;18.10;67.90;;;16.93;80.60;96257.66;4970526;28;20035;-67
2022/07/01 09:38:23;;;;;;;1.52;0.68;;;18.20;67.30;;;17.00;81.11;96265.56;4971709;28;20030;-67
2022/07/01 09:41:07;;;;;;;2.33;0.80;;;18.20;67.20;;;17.02;80.65;96266.97;4951130;28;20066;-67
2022/07/01 09:43:34;;;;;;;0.80;0.60;;;18.30;67.60;;;17.06;80.47;96276.09;4953460;28;20090;-67
2022/07/01 09:46:04;;;;;;;1.17;0.68;;;18.30;67.50;;;17.08;81.43;96271.38;4970297;28;20051;-67
2022/07/01 09:48:32;;;;;;;2.37;0.50;;;18.30;68.20;;;17.06;81.64;96273.44;4969413;28;20031;-67
2022/07/01 09:50:59;;;;;;;1.23;0.60;;;18.20;68.60;;;17.13;81.72;96265.38;4971687;28;20692;-67
2022/07/01 09:53:25;;;;;;;1.15;0.60;;;18.40;68.80;;;17.12;81.65;96261.91;4960896;28;20126;-67
2022/07/01 09:55:51;;;;;;;0.82;0.50;;;18.30;68.30;;;17.18;81.79;96259.38;4950906;28;20034;-66
2022/07/01 09:58:16;;;;;;;3.97;0.82;;;18.50;67.60;;;17.20;81.51;96273.25;4903120;29;20043;-66
2022/07/01 10:00:43;;;;;;;1.05;0.80;;;18.60;67.90;;;17.23;81.28;96270.97;4951064;28;20039;-66
2022/07/01 10:03:09;;;;;;;1.15;0.95;;;18.50;67.70;;;17.21;80.97;96269.59;4948332;28;20050;-67
2022/07/01 10:05:54;;;;;;;1.15;0.90;;;18.40;68.10;;;17.22;81.08;96273.84;4961842;28;20218;-67
2022/07/01 10:08:54;;;;;;;3.45;0.88;;;18.40;68.10;;;17.15;81.17;96287.22;4953661;28;20042;-67
2022/07/01 10:11:50;;;;;;;2.10;0.70;;;18.10;68.80;;;17.10;81.90;96287.09;4969157;28;20034;-69
2022/07/01 10:14:16;;;;;;;1.92;0.60;;;18.20;69.10;;;17.13;81.83;96294.59;4969792;28;20482;-66
2022/07/01 10:16:42;;;;;;;1.60;0.65;;;18.40;68.70;;;17.15;82.05;96296.00;4969814;28;20058;-66
2022/07/01 10:19:30;;;;;;;1.83;0.60;;;18.30;68.50;;;17.17;81.28;96300.28;4969189;28;20219;-67
2022/07/01 10:22:19;;;;;;;2.15;0.98;;;18.40;68.30;;;17.18;82.21;96313.34;4969768;28;20542;-67
2022/07/01 10:24:46;;;;;;;0.70;0.50;;;18.40;68.80;;;17.15;81.69;96322.59;4941102;28;20031;-67
2022/07/01 10:27:21;;;;;;;1.10;0.60;;;18.20;68.50;;;17.12;81.53;96324.88;4966321;28;20497;-67
2022/07/01 10:29:47;;;;;;;1.17;0.50;;;18.10;68.90;;;17.09;81.33;96322.69;4969405;28;20038;-67